createdAt,value
2022-08-10T00:02:33.126Z,24.4
2022-08-10T00:08:10.878Z,24.4
2022-08-10T00:13:59.555Z,24.4
2022-08-10T00:20:02.727Z,24.4
2022-08-10T00:25:41.693Z,24.3
2022-08-10T00:31:16.576Z,24.3
2022-08-10T00:36:51.342Z,24.2
2022-08-10T00:42:26.376Z,24.2
2022-08-10T00:48:01.609Z,24.2
2022-08-10T00:53:36.624Z,24.2
2022-08-10T00:59:11.469Z,24.1
2022-08-10T01:04:59.123Z,24.1
2022-08-10T01:10:38.088Z,24.1
2022-08-10T01:16:35.823Z,24
2022-08-10T01:22:08.394Z,24
2022-08-10T01:27:43.215Z,23.9
2022-08-10T01:33:18.381Z,23.9
2022-08-10T01:39:37.806Z,23.9
2022-08-10T01:45:17.814Z,23.9
2022-08-10T01:50:56.229Z,23.8
2022-08-10T01:56:35.548Z,23.8
2022-08-10T02:02:10.490Z,23.7
2022-08-10T02:07:45.246Z,23.7
2022-08-10T02:13:20.211Z,23.7
2022-08-10T02:19:17.662Z,23.7
2022-08-10T02:24:50.398Z,23.6
2022-08-10T02:30:25.372Z,23.6
2022-08-10T02:36:01.112Z,23.6
2022-08-10T02:42:19.442Z,23.6
2022-08-10T02:51:09.314Z,23.5
2022-08-10T02:56:44.885Z,23.5
2022-08-10T03:02:20.578Z,23.4
2022-08-10T03:07:55.595Z,23.4
2022-08-10T03:13:31.607Z,23.3
2022-08-10T03:20:04.269Z,23.3
2022-08-10T03:26:14.888Z,23.2
2022-08-10T03:31:55.551Z,23.1
2022-08-10T03:37:31.207Z,23.1
2022-08-10T03:43:14.540Z,23.1
2022-08-10T03:48:50.112Z,23
2022-08-10T03:54:36.193Z,23
2022-08-10T04:00:10.804Z,23
2022-08-10T04:05:47.318Z,22.9
2022-08-10T04:11:22.300Z,22.9
2022-08-10T04:17:57.304Z,22.9
2022-08-10T04:23:39.596Z,22.9
2022-08-10T04:29:14.399Z,22.8
2022-08-10T04:34:49.982Z,22.8
2022-08-10T04:40:25.519Z,22.8
2022-08-10T04:46:13.974Z,22.8
2022-08-10T04:52:35.244Z,22.8
2022-08-10T04:58:11.322Z,22.7
2022-08-10T05:04:32.873Z,22.7
2022-08-10T05:10:14.960Z,22.7
2022-08-10T05:15:49.757Z,22.6
2022-08-10T05:21:52.451Z,22.6
2022-08-10T05:27:39.995Z,22.6
2022-08-10T05:33:16.098Z,22.6
2022-08-10T05:38:51.120Z,22.6
2022-08-10T05:44:26.187Z,22.6
2022-08-10T05:50:00.879Z,22.5
2022-08-10T05:55:36.138Z,21.8
2022-08-10T06:01:11.269Z,21.6
2022-08-10T06:06:46.709Z,21.6
2022-08-10T06:12:24.824Z,21.6
2022-08-10T06:18:59.675Z,21.6
2022-08-10T06:24:32.390Z,21.7
2022-08-10T06:30:20.486Z,21.8
2022-08-10T06:35:56.103Z,22
2022-08-10T06:41:58.115Z,22.2
2022-08-10T06:47:54.533Z,22.3
2022-08-10T06:53:52.506Z,22.5
2022-08-10T06:59:31.537Z,22.7
2022-08-10T07:05:06.389Z,22.8
2022-08-10T07:10:43.263Z,23
2022-08-10T07:16:43.384Z,23.3
2022-08-10T07:23:01.088Z,23.6
2022-08-10T07:29:53.148Z,23.9
2022-08-10T07:35:36.312Z,24.2
2022-08-10T07:41:19.280Z,24.4
2022-08-10T07:46:54.366Z,24.6
2022-08-10T07:52:30.182Z,24.8
2022-08-10T07:58:06.186Z,24.9
2022-08-10T08:03:41.811Z,25.1
2022-08-10T08:09:16.689Z,25.1
2022-08-10T08:14:52.606Z,25.2
2022-08-10T08:20:28.809Z,25.5
2022-08-10T08:26:04.521Z,25.7
2022-08-10T08:31:54.198Z,25.9
2022-08-10T08:38:28.959Z,26.1
2022-08-10T08:44:10.272Z,26.3
2022-08-10T08:50:10.155Z,26.6
2022-08-10T08:55:55.255Z,26.8
2022-08-10T09:01:42.707Z,27
2022-08-10T09:07:39.226Z,27.1
2022-08-10T09:13:38.859Z,27.4
2022-08-10T09:19:36.974Z,27.6
2022-08-10T09:25:10.121Z,27.8
2022-08-10T09:31:03.929Z,27.9
2022-08-10T09:37:00.975Z,28.2
2022-08-10T09:42:37.512Z,28.4
2022-08-10T09:48:12.830Z,28.5
2022-08-10T09:53:47.815Z,28.8
2022-08-10T09:59:56.671Z,28.9
2022-08-10T10:05:38.196Z,29.1
2022-08-10T10:11:24.168Z,29.3
2022-08-10T10:17:20.881Z,29.5
2022-08-10T10:22:53.912Z,29.5
2022-08-10T10:28:39.099Z,28.3
2022-08-10T10:35:36.409Z,27.9
2022-08-10T10:41:14.741Z,27.8
2022-08-10T10:46:51.462Z,27.8
2022-08-10T10:52:27.205Z,27.7
2022-08-10T10:58:02.278Z,27.8
2022-08-10T11:03:39.822Z,27.8
2022-08-10T11:10:01.183Z,27.9
2022-08-10T11:16:52.984Z,28
2022-08-10T11:22:36.568Z,28.1
2022-08-10T11:28:12.481Z,28.1
2022-08-10T11:34:11.100Z,28.2
2022-08-10T11:40:48.459Z,28.3
2022-08-10T11:46:28.578Z,28.4
2022-08-10T11:52:04.200Z,28.5
2022-08-10T11:57:53.034Z,28.6
2022-08-10T12:03:35.730Z,28.7
2022-08-10T12:10:03.250Z,28.8
2022-08-10T12:15:49.838Z,28.9
2022-08-10T12:21:24.243Z,29
2022-08-10T12:26:59.145Z,29.2
2022-08-10T12:32:35.026Z,29.3
2022-08-10T12:38:12.353Z,29.4
2022-08-10T12:44:06.002Z,29.5
2022-08-10T12:50:14.080Z,29.7
2022-08-10T12:56:09.575Z,30.1
2022-08-10T13:02:07.081Z,30.4
2022-08-10T13:08:03.476Z,30.7
2022-08-10T13:14:03.389Z,31
2022-08-10T13:19:54.780Z,31.2
2022-08-10T13:25:50.668Z,31.5
2022-08-10T13:31:29.565Z,31.8
2022-08-10T13:37:46.577Z,32.1
2022-08-10T13:43:21.536Z,32.4
2022-08-10T13:48:57.412Z,32.6
2022-08-10T13:54:34.935Z,32.9
2022-08-10T14:00:33.353Z,33.1
2022-08-10T14:06:14.505Z,33.4
2022-08-10T14:11:49.607Z,33.6
2022-08-10T14:17:46.537Z,33.7
2022-08-10T14:23:20.464Z,33.7
2022-08-10T14:28:55.338Z,33.7
2022-08-10T14:34:59.701Z,34
2022-08-10T14:42:07.189Z,34.5
2022-08-10T14:48:03.048Z,34.8
2022-08-10T14:53:45.858Z,34.9
2022-08-10T14:59:24.542Z,35.1
2022-08-10T15:06:18.902Z,35.3
2022-08-10T15:12:12.714Z,35.4
2022-08-10T15:18:26.248Z,35.5
2022-08-10T15:24:04.993Z,35.7
2022-08-10T15:29:56.842Z,35.5
2022-08-10T15:35:34.178Z,35.5
2022-08-10T15:41:15.129Z,35.3
2022-08-10T15:47:44.795Z,35
2022-08-10T15:53:27.603Z,35
2022-08-10T15:59:07.947Z,35.1
2022-08-10T16:04:43.392Z,35.1
2022-08-10T16:10:28.464Z,35.1
2022-08-10T16:16:35.650Z,35.2
2022-08-10T16:22:34.560Z,35.3
2022-08-10T16:28:20.215Z,35.4
2022-08-10T16:33:59.392Z,35.3
2022-08-10T16:39:57.562Z,35.1
2022-08-10T16:45:37.973Z,34.8
2022-08-10T16:51:14.187Z,34.9
2022-08-10T16:56:52.720Z,35
2022-08-10T17:02:27.542Z,35.1
2022-08-10T17:08:03.620Z,35
2022-08-10T17:13:38.443Z,34.5
2022-08-10T17:19:34.930Z,34.1
2022-08-10T17:25:07.761Z,33.7
2022-08-10T17:30:57.757Z,33.4
2022-08-10T17:36:33.673Z,33.2
2022-08-10T17:42:08.735Z,33
2022-08-10T17:47:43.426Z,32.8
2022-08-10T17:53:19.227Z,32.6
2022-08-10T17:58:54.012Z,32.4
2022-08-10T18:04:33.155Z,32.2
2022-08-10T18:10:17.621Z,32
2022-08-10T18:15:52.259Z,31.9
2022-08-10T18:21:27.173Z,31.7
2022-08-10T18:27:05.704Z,31.6
2022-08-10T18:32:40.259Z,31.4
2022-08-10T18:38:15.481Z,31.3
2022-08-10T18:44:04.917Z,31.2
2022-08-10T18:49:47.758Z,31
2022-08-10T18:55:24.456Z,30.5
2022-08-10T19:01:44.952Z,30.1
2022-08-10T19:07:19.755Z,29.8
2022-08-10T19:12:54.919Z,29.5
2022-08-10T19:18:51.431Z,29.2
2022-08-10T19:24:24.171Z,28.9
2022-08-10T19:30:05.294Z,28.7
2022-08-10T19:36:02.674Z,28.4
2022-08-10T19:41:41.831Z,28.3
2022-08-10T19:47:21.089Z,28.2
2022-08-10T19:52:55.919Z,28.1
2022-08-10T19:58:30.909Z,28.1
2022-08-10T20:04:05.682Z,28.2
2022-08-10T20:09:41.583Z,28.2
2022-08-10T20:15:16.348Z,28.1
2022-08-10T20:20:52.151Z,28
2022-08-10T20:26:26.950Z,27.8
2022-08-10T20:32:01.681Z,27.7
2022-08-10T20:38:03.262Z,27.7
2022-08-10T20:43:42.494Z,27.6
2022-08-10T20:49:17.746Z,27.5
2022-08-10T20:54:53.013Z,27.3
2022-08-10T21:00:27.639Z,27.2
2022-08-10T21:06:03.540Z,27
2022-08-10T21:11:38.372Z,26.8
2022-08-10T21:17:35.085Z,26.6
2022-08-10T21:23:11.245Z,26.6
2022-08-10T21:28:49.931Z,27
2022-08-10T21:34:31.633Z,27.1
2022-08-10T21:40:07.758Z,27.1
2022-08-10T21:46:15.452Z,27
2022-08-10T21:52:00.819Z,26.9
2022-08-10T21:57:43.337Z,26.8
2022-08-10T22:03:20.593Z,26.8
2022-08-10T22:08:55.398Z,26.8
2022-08-10T22:14:32.119Z,26.7
2022-08-10T22:20:08.899Z,26.7
2022-08-10T22:25:44.190Z,26.6
2022-08-10T22:37:25.439Z,26.5
2022-08-10T22:43:10.217Z,26.4
2022-08-10T22:49:11.263Z,26.3
2022-08-10T22:54:46.179Z,26.3
2022-08-10T23:00:29.472Z,26.2
2022-08-10T23:06:06.595Z,26.2
2022-08-10T23:11:41.471Z,26.1
2022-08-10T23:18:01.323Z,26.1
2022-08-10T23:23:35.400Z,26
2022-08-10T23:29:11.892Z,25.9
2022-08-10T23:36:05.383Z,25.8
2022-08-10T23:42:10.870Z,25.7
2022-08-10T23:47:45.660Z,25.7
2022-08-10T23:53:20.681Z,25.6
2022-08-10T23:59:00.150Z,25.6
